sensor_id;sensor_type;location;lat;lon;timestamp;temperature;humidity
7014;DHT22;3547;50.774;12.918;2023-02-28T00:00:23;-2.10;1.00
7014;DHT22;3547;50.774;12.918;2023-02-28T00:02:49;-2.00;1.00
7014;DHT22;3547;50.774;12.918;2023-02-28T00:05:19;-2.00;1.00
7014;DHT22;3547;50.774;12.918;2023-02-28T00:07:46;-2.00;1.00
7014;DHT22;3547;50.774;12.918;2023-02-28T00:10:16;-2.00;1.00
7014;DHT22;3547;50.774;12.918;2023-02-28T00:12:45;-2.00;1.00
7014;DHT22;3547;50.774;12.918;2023-02-28T00:15:11;-1.90;1.00
7014;DHT22;3547;50.774;12.918;2023-02-28T00:17:37;-2.00;1.00
7014;DHT22;3547;50.774;12.918;2023-02-28T00:20:05;-2.00;1.00
7014;DHT22;3547;50.774;12.918;2023-02-28T00:22:34;-2.00;1.00
7014;DHT22;3547;50.774;12.918;2023-02-28T00:25:00;-1.90;1.00
7014;DHT22;3547;50.774;12.918;2023-02-28T00:27:26;-1.90;1.00
7014;DHT22;3547;50.774;12.918;2023-02-28T00:29:52;-2.00;1.00
7014;DHT22;3547;50.774;12.918;2023-02-28T00:32:19;-2.10;1.00
7014;DHT22;3547;50.774;12.918;2023-02-28T00:34:46;-2.10;1.00
7014;DHT22;3547;50.774;12.918;2023-02-28T00:37:12;-2.10;1.00
7014;DHT22;3547;50.774;12.918;2023-02-28T00:39:39;-2.10;1.00
7014;DHT22;3547;50.774;12.918;2023-02-28T00:42:06;-2.10;1.00
7014;DHT22;3547;50.774;12.918;2023-02-28T00:44:32;-2.10;1.00
7014;DHT22;3547;50.774;12.918;2023-02-28T00:46:59;-2.00;1.00
7014;DHT22;3547;50.774;12.918;2023-02-28T00:49:26;-2.00;1.00
7014;DHT22;3547;50.774;12.918;2023-02-28T00:51:55;-2.00;1.00
7014;DHT22;3547;50.774;12.918;2023-02-28T00:54:23;-2.00;1.00
7014;DHT22;3547;50.774;12.918;2023-02-28T00:56:49;-2.00;1.00
7014;DHT22;3547;50.774;12.918;2023-02-28T00:59:16;-1.90;1.00
7014;DHT22;3547;50.774;12.918;2023-02-28T01:01:44;-1.90;1.00
7014;DHT22;3547;50.774;12.918;2023-02-28T01:04:11;-2.00;1.00
7014;DHT22;3547;50.774;12.918;2023-02-28T01:06:37;-2.00;1.00
7014;DHT22;3547;50.774;12.918;2023-02-28T01:09:04;-2.00;1.00
7014;DHT22;3547;50.774;12.918;2023-02-28T01:11:31;-2.00;1.00
7014;DHT22;3547;50.774;12.918;2023-02-28T01:13:58;-2.00;1.00
7014;DHT22;3547;50.774;12.918;2023-02-28T01:16:25;-2.10;1.00
7014;DHT22;3547;50.774;12.918;2023-02-28T01:18:51;-2.10;1.00
7014;DHT22;3547;50.774;12.918;2023-02-28T01:21:19;-2.20;1.00
7014;DHT22;3547;50.774;12.918;2023-02-28T01:23:45;-2.20;1.00
7014;DHT22;3547;50.774;12.918;2023-02-28T01:26:14;-2.30;1.00
7014;DHT22;3547;50.774;12.918;2023-02-28T01:28:41;-2.30;1.00
7014;DHT22;3547;50.774;12.918;2023-02-28T01:31:09;-2.30;1.00
7014;DHT22;3547;50.774;12.918;2023-02-28T01:33:35;-2.40;1.00
7014;DHT22;3547;50.774;12.918;2023-02-28T01:36:19;-2.50;1.00
7014;DHT22;3547;50.774;12.918;2023-02-28T01:38:46;-2.50;1.00
7014;DHT22;3547;50.774;12.918;2023-02-28T01:46:13;-2.60;1.00
7014;DHT22;3547;50.774;12.918;2023-02-28T01:49:16;-2.60;1.00
7014;DHT22;3547;50.774;12.918;2023-02-28T01:51:42;-2.70;1.00
7014;DHT22;3547;50.774;12.918;2023-02-28T01:54:20;-2.80;1.00
7014;DHT22;3547;50.774;12.918;2023-02-28T01:56:52;-2.80;1.00
7014;DHT22;3547;50.774;12.918;2023-02-28T01:59:37;-2.80;1.00
7014;DHT22;3547;50.774;12.918;2023-02-28T02:02:06;-2.90;1.00
7014;DHT22;3547;50.774;12.918;2023-02-28T02:04:38;-3.00;1.00
7014;DHT22;3547;50.774;12.918;2023-02-28T02:07:06;-3.00;1.00
7014;DHT22;3547;50.774;12.918;2023-02-28T02:09:32;-3.00;1.00
7014;DHT22;3547;50.774;12.918;2023-02-28T02:12:02;-3.00;1.00
7014;DHT22;3547;50.774;12.918;2023-02-28T02:17:43;-3.10;1.00
7014;DHT22;3547;50.774;12.918;2023-02-28T02:20:24;-3.10;1.00
7014;DHT22;3547;50.774;12.918;2023-02-28T02:26:15;-3.10;1.00
7014;DHT22;3547;50.774;12.918;2023-02-28T02:39:40;-3.20;1.00
7014;DHT22;3547;50.774;12.918;2023-02-28T02:42:23;-3.10;1.00
7014;DHT22;3547;50.774;12.918;2023-02-28T02:45:08;-3.00;1.00
7014;DHT22;3547;50.774;12.918;2023-02-28T02:47:37;-3.20;1.00
7014;DHT22;3547;50.774;12.918;2023-02-28T02:50:08;-3.10;1.00
7014;DHT22;3547;50.774;12.918;2023-02-28T02:52:45;-3.00;1.00
7014;DHT22;3547;50.774;12.918;2023-02-28T02:55:13;-3.00;1.00
7014;DHT22;3547;50.774;12.918;2023-02-28T03:00:17;-2.90;1.00
7014;DHT22;3547;50.774;12.918;2023-02-28T03:02:47;-2.90;1.00
7014;DHT22;3547;50.774;12.918;2023-02-28T03:05:21;-2.90;1.00
7014;DHT22;3547;50.774;12.918;2023-02-28T03:07:49;-2.80;1.00
7014;DHT22;3547;50.774;12.918;2023-02-28T03:10:37;-2.70;1.00
7014;DHT22;3547;50.774;12.918;2023-02-28T03:19:12;-2.60;1.00
7014;DHT22;3547;50.774;12.918;2023-02-28T03:22:11;-2.50;1.00
7014;DHT22;3547;50.774;12.918;2023-02-28T03:27:23;-2.40;1.00
7014;DHT22;3547;50.774;12.918;2023-02-28T03:30:14;-2.30;1.00
7014;DHT22;3547;50.774;12.918;2023-02-28T03:32:53;-2.30;1.00
7014;DHT22;3547;50.774;12.918;2023-02-28T03:35:25;-2.20;1.00
7014;DHT22;3547;50.774;12.918;2023-02-28T03:38:10;-2.20;1.00
7014;DHT22;3547;50.774;12.918;2023-02-28T03:40:42;-2.20;1.00
7014;DHT22;3547;50.774;12.918;2023-02-28T03:43:14;-2.10;1.00
7014;DHT22;3547;50.774;12.918;2023-02-28T03:45:43;-2.10;1.00
7014;DHT22;3547;50.774;12.918;2023-02-28T03:48:32;-2.10;1.00
7014;DHT22;3547;50.774;12.918;2023-02-28T03:51:02;-2.20;1.00
7014;DHT22;3547;50.774;12.918;2023-02-28T03:53:31;-2.10;1.00
7014;DHT22;3547;50.774;12.918;2023-02-28T03:56:14;-2.20;1.00
7014;DHT22;3547;50.774;12.918;2023-02-28T03:58:49;-2.10;1.00
7014;DHT22;3547;50.774;12.918;2023-02-28T04:01:44;-2.10;1.00
7014;DHT22;3547;50.774;12.918;2023-02-28T04:04:11;-2.10;1.00
7014;DHT22;3547;50.774;12.918;2023-02-28T04:06:38;-2.10;1.00
7014;DHT22;3547;50.774;12.918;2023-02-28T04:09:06;-2.10;1.00
7014;DHT22;3547;50.774;12.918;2023-02-28T04:11:39;-2.10;1.00
7014;DHT22;3547;50.774;12.918;2023-02-28T04:14:07;-2.10;1.00
7014;DHT22;3547;50.774;12.918;2023-02-28T04:16:35;-2.20;1.00
7014;DHT22;3547;50.774;12.918;2023-02-28T04:19:03;-2.20;1.00
7014;DHT22;3547;50.774;12.918;2023-02-28T04:21:32;-2.30;1.00
7014;DHT22;3547;50.774;12.918;2023-02-28T04:23:58;-2.30;1.00
7014;DHT22;3547;50.774;12.918;2023-02-28T04:28:56;-2.50;1.00
7014;DHT22;3547;50.774;12.918;2023-02-28T04:31:23;-2.50;1.00
7014;DHT22;3547;50.774;12.918;2023-02-28T04:33:49;-2.50;1.00
7014;DHT22;3547;50.774;12.918;2023-02-28T04:36:16;-2.60;1.00
7014;DHT22;3547;50.774;12.918;2023-02-28T04:38:47;-2.60;1.00
7014;DHT22;3547;50.774;12.918;2023-02-28T04:41:13;-2.60;1.00
7014;DHT22;3547;50.774;12.918;2023-02-28T04:43:40;-2.60;1.00
7014;DHT22;3547;50.774;12.918;2023-02-28T04:46:07;-2.70;1.00
7014;DHT22;3547;50.774;12.918;2023-02-28T04:48:36;-2.80;1.00
7014;DHT22;3547;50.774;12.918;2023-02-28T04:51:08;-2.80;1.00
7014;DHT22;3547;50.774;12.918;2023-02-28T04:53:36;-2.90;1.00
7014;DHT22;3547;50.774;12.918;2023-02-28T04:56:02;-2.90;1.00
7014;DHT22;3547;50.774;12.918;2023-02-28T04:58:29;-3.00;1.00
7014;DHT22;3547;50.774;12.918;2023-02-28T05:01:02;-3.10;1.00
7014;DHT22;3547;50.774;12.918;2023-02-28T05:03:29;-3.10;1.00
7014;DHT22;3547;50.774;12.918;2023-02-28T05:05:56;-3.10;1.00
7014;DHT22;3547;50.774;12.918;2023-02-28T05:08:22;-3.20;1.00
7014;DHT22;3547;50.774;12.918;2023-02-28T05:10:48;-3.20;1.00
7014;DHT22;3547;50.774;12.918;2023-02-28T05:13:14;-3.20;1.00
7014;DHT22;3547;50.774;12.918;2023-02-28T05:15:40;-3.30;1.00
7014;DHT22;3547;50.774;12.918;2023-02-28T05:18:08;-3.30;1.00
7014;DHT22;3547;50.774;12.918;2023-02-28T05:20:34;-3.50;1.00
7014;DHT22;3547;50.774;12.918;2023-02-28T05:23:01;-3.40;1.00
7014;DHT22;3547;50.774;12.918;2023-02-28T05:25:27;-3.40;1.00
7014;DHT22;3547;50.774;12.918;2023-02-28T05:27:54;-3.40;1.00
7014;DHT22;3547;50.774;12.918;2023-02-28T05:30:20;-3.40;1.00
7014;DHT22;3547;50.774;12.918;2023-02-28T05:32:50;-3.40;1.00
7014;DHT22;3547;50.774;12.918;2023-02-28T05:35:17;-3.50;1.00
7014;DHT22;3547;50.774;12.918;2023-02-28T05:37:43;-3.40;1.00
7014;DHT22;3547;50.774;12.918;2023-02-28T05:40:10;-3.40;1.00
7014;DHT22;3547;50.774;12.918;2023-02-28T05:42:36;-3.40;1.00
7014;DHT22;3547;50.774;12.918;2023-02-28T05:45:04;-3.40;1.00
7014;DHT22;3547;50.774;12.918;2023-02-28T05:47:31;-3.40;1.00
7014;DHT22;3547;50.774;12.918;2023-02-28T05:49:57;-3.40;1.00
7014;DHT22;3547;50.774;12.918;2023-02-28T05:52:23;-3.40;1.00
7014;DHT22;3547;50.774;12.918;2023-02-28T05:54:49;-3.50;1.00
7014;DHT22;3547;50.774;12.918;2023-02-28T05:57:15;-3.50;1.00
7014;DHT22;3547;50.774;12.918;2023-02-28T05:59:41;-3.50;1.00
7014;DHT22;3547;50.774;12.918;2023-02-28T06:02:12;-3.50;1.00
7014;DHT22;3547;50.774;12.918;2023-02-28T06:04:39;-3.50;1.00
7014;DHT22;3547;50.774;12.918;2023-02-28T06:07:06;-3.50;1.00
7014;DHT22;3547;50.774;12.918;2023-02-28T06:09:33;-3.60;1.00
7014;DHT22;3547;50.774;12.918;2023-02-28T06:12:00;-3.50;1.00
7014;DHT22;3547;50.774;12.918;2023-02-28T06:14:29;-3.50;1.00
7014;DHT22;3547;50.774;12.918;2023-02-28T06:16:57;-3.50;1.00
7014;DHT22;3547;50.774;12.918;2023-02-28T06:19:24;-3.50;1.00
7014;DHT22;3547;50.774;12.918;2023-02-28T06:21:54;-3.50;1.00
7014;DHT22;3547;50.774;12.918;2023-02-28T06:24:21;-3.50;1.00
7014;DHT22;3547;50.774;12.918;2023-02-28T06:26:48;-3.40;1.00
7014;DHT22;3547;50.774;12.918;2023-02-28T06:29:14;-3.50;1.00
7014;DHT22;3547;50.774;12.918;2023-02-28T06:31:45;-3.40;1.00
7014;DHT22;3547;50.774;12.918;2023-02-28T06:34:12;-3.40;1.00
7014;DHT22;3547;50.774;12.918;2023-02-28T06:36:40;-3.40;1.00
7014;DHT22;3547;50.774;12.918;2023-02-28T06:39:08;-3.40;1.00
7014;DHT22;3547;50.774;12.918;2023-02-28T06:41:34;-3.40;1.00
7014;DHT22;3547;50.774;12.918;2023-02-28T06:44:14;-3.40;1.00
7014;DHT22;3547;50.774;12.918;2023-02-28T06:46:42;-3.40;1.00
7014;DHT22;3547;50.774;12.918;2023-02-28T06:49:10;-3.30;1.00
7014;DHT22;3547;50.774;12.918;2023-02-28T06:51:38;-3.30;1.00
7014;DHT22;3547;50.774;12.918;2023-02-28T06:54:05;-3.30;1.00
7014;DHT22;3547;50.774;12.918;2023-02-28T06:56:35;-3.30;1.00
7014;DHT22;3547;50.774;12.918;2023-02-28T06:59:02;-3.30;1.00
7014;DHT22;3547;50.774;12.918;2023-02-28T07:01:28;-3.20;1.00
7014;DHT22;3547;50.774;12.918;2023-02-28T07:03:55;-3.20;1.00
7014;DHT22;3547;50.774;12.918;2023-02-28T07:06:22;-3.20;1.00
7014;DHT22;3547;50.774;12.918;2023-02-28T07:08:50;-3.10;1.00
7014;DHT22;3547;50.774;12.918;2023-02-28T07:11:16;-3.10;1.00
7014;DHT22;3547;50.774;12.918;2023-02-28T07:13:42;-3.10;1.00
7014;DHT22;3547;50.774;12.918;2023-02-28T07:16:10;-3.10;1.00
7014;DHT22;3547;50.774;12.918;2023-02-28T07:18:37;-3.10;1.00
7014;DHT22;3547;50.774;12.918;2023-02-28T07:21:06;-3.00;1.00
7014;DHT22;3547;50.774;12.918;2023-02-28T07:23:33;-3.00;1.00
7014;DHT22;3547;50.774;12.918;2023-02-28T07:25:59;-2.80;1.00
7014;DHT22;3547;50.774;12.918;2023-02-28T07:28:25;-2.80;1.00
7014;DHT22;3547;50.774;12.918;2023-02-28T07:30:51;-2.70;1.00
7014;DHT22;3547;50.774;12.918;2023-02-28T07:33:18;-2.60;1.00
7014;DHT22;3547;50.774;12.918;2023-02-28T07:35:44;-2.50;1.00
7014;DHT22;3547;50.774;12.918;2023-02-28T07:38:10;-2.40;1.00
7014;DHT22;3547;50.774;12.918;2023-02-28T07:40:37;-2.40;1.00
7014;DHT22;3547;50.774;12.918;2023-02-28T07:43:03;-2.30;1.00
7014;DHT22;3547;50.774;12.918;2023-02-28T07:45:30;-2.20;1.00
7014;DHT22;3547;50.774;12.918;2023-02-28T07:47:57;-2.20;1.00
7014;DHT22;3547;50.774;12.918;2023-02-28T07:50:23;-2.10;1.00
7014;DHT22;3547;50.774;12.918;2023-02-28T07:52:49;-2.00;1.00
7014;DHT22;3547;50.774;12.918;2023-02-28T07:55:16;-1.90;1.00
7014;DHT22;3547;50.774;12.918;2023-02-28T07:57:42;-1.80;1.00
7014;DHT22;3547;50.774;12.918;2023-02-28T08:00:10;-1.70;1.00
7014;DHT22;3547;50.774;12.918;2023-02-28T08:02:36;-1.70;1.00
7014;DHT22;3547;50.774;12.918;2023-02-28T08:05:02;-1.50;1.00
7014;DHT22;3547;50.774;12.918;2023-02-28T08:07:29;-1.40;1.00
7014;DHT22;3547;50.774;12.918;2023-02-28T08:09:56;-1.50;1.00
7014;DHT22;3547;50.774;12.918;2023-02-28T08:12:22;-1.40;1.00
7014;DHT22;3547;50.774;12.918;2023-02-28T08:14:48;-1.20;1.00
7014;DHT22;3547;50.774;12.918;2023-02-28T08:17:14;-1.10;1.00
7014;DHT22;3547;50.774;12.918;2023-02-28T08:19:40;-1.10;1.00
7014;DHT22;3547;50.774;12.918;2023-02-28T08:22:06;-0.90;1.00
7014;DHT22;3547;50.774;12.918;2023-02-28T08:24:33;-0.80;1.00
7014;DHT22;3547;50.774;12.918;2023-02-28T08:26:59;-0.80;1.00
7014;DHT22;3547;50.774;12.918;2023-02-28T08:29:25;-0.70;1.00
7014;DHT22;3547;50.774;12.918;2023-02-28T08:31:51;-0.60;1.00
7014;DHT22;3547;50.774;12.918;2023-02-28T08:34:17;-0.60;1.00
7014;DHT22;3547;50.774;12.918;2023-02-28T08:36:44;-0.50;1.00
7014;DHT22;3547;50.774;12.918;2023-02-28T08:39:11;-0.40;1.00
7014;DHT22;3547;50.774;12.918;2023-02-28T08:41:37;-0.30;1.00
7014;DHT22;3547;50.774;12.918;2023-02-28T08:44:03;-0.30;1.00
7014;DHT22;3547;50.774;12.918;2023-02-28T08:46:30;-0.20;1.00
7014;DHT22;3547;50.774;12.918;2023-02-28T08:48:57;-0.20;1.00
7014;DHT22;3547;50.774;12.918;2023-02-28T08:51:28;-0.10;1.00
7014;DHT22;3547;50.774;12.918;2023-02-28T08:53:59;-0.10;1.00
7014;DHT22;3547;50.774;12.918;2023-02-28T08:56:27;0.00;1.00
7014;DHT22;3547;50.774;12.918;2023-02-28T08:58:55;0.20;1.00
7014;DHT22;3547;50.774;12.918;2023-02-28T09:01:24;0.10;1.00
7014;DHT22;3547;50.774;12.918;2023-02-28T09:03:53;0.30;1.00
7014;DHT22;3547;50.774;12.918;2023-02-28T09:06:21;0.40;1.00
7014;DHT22;3547;50.774;12.918;2023-02-28T09:08:47;0.50;1.00
7014;DHT22;3547;50.774;12.918;2023-02-28T09:11:14;0.60;1.00
7014;DHT22;3547;50.774;12.918;2023-02-28T09:13:40;0.80;1.00
7014;DHT22;3547;50.774;12.918;2023-02-28T09:16:09;0.80;1.00
7014;DHT22;3547;50.774;12.918;2023-02-28T09:18:37;0.90;1.00
7014;DHT22;3547;50.774;12.918;2023-02-28T09:21:05;1.20;1.00
7014;DHT22;3547;50.774;12.918;2023-02-28T09:23:31;1.20;99.90
7014;DHT22;3547;50.774;12.918;2023-02-28T09:25:57;1.40;1.00
7014;DHT22;3547;50.774;12.918;2023-02-28T09:28:24;1.50;1.00
7014;DHT22;3547;50.774;12.918;2023-02-28T09:30:52;1.50;1.00
7014;DHT22;3547;50.774;12.918;2023-02-28T09:33:20;1.60;1.00
7014;DHT22;3547;50.774;12.918;2023-02-28T09:35:47;1.80;1.00
7014;DHT22;3547;50.774;12.918;2023-02-28T09:38:14;1.90;1.00
7014;DHT22;3547;50.774;12.918;2023-02-28T09:40:51;2.00;1.00
7014;DHT22;3547;50.774;12.918;2023-02-28T09:43:20;2.20;1.00
7014;DHT22;3547;50.774;12.918;2023-02-28T09:48:36;2.30;1.00
7014;DHT22;3547;50.774;12.918;2023-02-28T09:51:09;2.30;1.00
7014;DHT22;3547;50.774;12.918;2023-02-28T09:53:38;2.40;1.00
7014;DHT22;3547;50.774;12.918;2023-02-28T09:56:11;2.50;1.00
7014;DHT22;3547;50.774;12.918;2023-02-28T09:58:57;2.40;1.00
7014;DHT22;3547;50.774;12.918;2023-02-28T10:01:27;2.30;1.00
7014;DHT22;3547;50.774;12.918;2023-02-28T10:04:00;2.50;1.00
7014;DHT22;3547;50.774;12.918;2023-02-28T10:06:32;2.60;1.00
7014;DHT22;3547;50.774;12.918;2023-02-28T10:09:06;2.70;1.00
7014;DHT22;3547;50.774;12.918;2023-02-28T10:11:36;2.60;1.00
7014;DHT22;3547;50.774;12.918;2023-02-28T10:14:11;2.80;1.00
7014;DHT22;3547;50.774;12.918;2023-02-28T10:22:24;2.70;1.00
7014;DHT22;3547;50.774;12.918;2023-02-28T10:24:54;2.80;1.00
7014;DHT22;3547;50.774;12.918;2023-02-28T10:27:24;2.60;1.00
7014;DHT22;3547;50.774;12.918;2023-02-28T10:29:53;2.70;1.00
7014;DHT22;3547;50.774;12.918;2023-02-28T10:32:30;2.70;1.00
7014;DHT22;3547;50.774;12.918;2023-02-28T10:35:03;2.50;99.90
7014;DHT22;3547;50.774;12.918;2023-02-28T10:37:32;2.40;99.90
7014;DHT22;3547;50.774;12.918;2023-02-28T10:43:20;2.40;99.90
7014;DHT22;3547;50.774;12.918;2023-02-28T10:51:04;3.00;1.00
7014;DHT22;3547;50.774;12.918;2023-02-28T10:53:34;3.20;1.00
7014;DHT22;3547;50.774;12.918;2023-02-28T10:56:24;3.20;99.90
7014;DHT22;3547;50.774;12.918;2023-02-28T11:01:44;3.50;1.00
7014;DHT22;3547;50.774;12.918;2023-02-28T11:07:06;3.90;1.00
7014;DHT22;3547;50.774;12.918;2023-02-28T11:09:46;3.90;1.00
7014;DHT22;3547;50.774;12.918;2023-02-28T11:14:51;4.30;1.00
7014;DHT22;3547;50.774;12.918;2023-02-28T11:17:21;4.10;99.90
7014;DHT22;3547;50.774;12.918;2023-02-28T11:19:51;4.30;1.00
7014;DHT22;3547;50.774;12.918;2023-02-28T11:22:27;4.10;99.90
7014;DHT22;3547;50.774;12.918;2023-02-28T11:24:57;4.00;99.90
7014;DHT22;3547;50.774;12.918;2023-02-28T11:27:46;4.20;1.00
7014;DHT22;3547;50.774;12.918;2023-02-28T11:30:39;4.40;1.00
7014;DHT22;3547;50.774;12.918;2023-02-28T11:36:29;4.90;99.90
7014;DHT22;3547;50.774;12.918;2023-02-28T11:38:59;5.10;1.00
7014;DHT22;3547;50.774;12.918;2023-02-28T11:42:11;5.40;1.00
7014;DHT22;3547;50.774;12.918;2023-02-28T11:47:38;5.50;99.90
7014;DHT22;3547;50.774;12.918;2023-02-28T11:52:54;5.80;1.00
7014;DHT22;3547;50.774;12.918;2023-02-28T11:55:36;5.90;1.00
7014;DHT22;3547;50.774;12.918;2023-02-28T12:18:35;7.50;1.00
7014;DHT22;3547;50.774;12.918;2023-02-28T12:20:54;7.70;1.00
7014;DHT22;3547;50.774;12.918;2023-02-28T12:26:18;7.60;1.00
7014;DHT22;3547;50.774;12.918;2023-02-28T12:28:52;7.60;1.00
7014;DHT22;3547;50.774;12.918;2023-02-28T12:31:33;7.30;1.00
7014;DHT22;3547;50.774;12.918;2023-02-28T12:34:05;7.10;1.00
7014;DHT22;3547;50.774;12.918;2023-02-28T12:36:34;7.00;99.90
7014;DHT22;3547;50.774;12.918;2023-02-28T12:39:08;6.70;1.00
7014;DHT22;3547;50.774;12.918;2023-02-28T12:41:46;6.40;1.00
7014;DHT22;3547;50.774;12.918;2023-02-28T12:44:35;6.30;1.00
7014;DHT22;3547;50.774;12.918;2023-02-28T12:47:05;6.30;1.00
7014;DHT22;3547;50.774;12.918;2023-02-28T12:55:21;6.40;1.00
7014;DHT22;3547;50.774;12.918;2023-02-28T13:00:35;6.30;99.90
7014;DHT22;3547;50.774;12.918;2023-02-28T13:11:46;6.00;99.90
7014;DHT22;3547;50.774;12.918;2023-02-28T13:19:33;5.90;99.90
7014;DHT22;3547;50.774;12.918;2023-02-28T13:22:01;5.90;1.00
7014;DHT22;3547;50.774;12.918;2023-02-28T13:39:49;5.30;99.90
7014;DHT22;3547;50.774;12.918;2023-02-28T13:42:35;5.30;99.90
7014;DHT22;3547;50.774;12.918;2023-02-28T13:47:42;5.40;99.90
7014;DHT22;3547;50.774;12.918;2023-02-28T13:56:23;5.50;99.90
7014;DHT22;3547;50.774;12.918;2023-02-28T14:04:57;5.30;99.90
7014;DHT22;3547;50.774;12.918;2023-02-28T14:07:04;5.30;99.90
7014;DHT22;3547;50.774;12.918;2023-02-28T14:09:56;5.10;99.90
7014;DHT22;3547;50.774;12.918;2023-02-28T14:16:02;5.30;99.90
7014;DHT22;3547;50.774;12.918;2023-02-28T14:18:32;5.30;99.90
7014;DHT22;3547;50.774;12.918;2023-02-28T14:21:28;5.40;99.90
7014;DHT22;3547;50.774;12.918;2023-02-28T14:32:35;5.40;99.90
7014;DHT22;3547;50.774;12.918;2023-02-28T14:35:18;5.40;99.90
7014;DHT22;3547;50.774;12.918;2023-02-28T14:37:46;5.40;99.90
7014;DHT22;3547;50.774;12.918;2023-02-28T14:40:33;5.30;99.90
7014;DHT22;3547;50.774;12.918;2023-02-28T14:43:05;5.00;99.90
7014;DHT22;3547;50.774;12.918;2023-02-28T14:45:34;5.00;99.90
7014;DHT22;3547;50.774;12.918;2023-02-28T14:48:02;4.90;99.90
7014;DHT22;3547;50.774;12.918;2023-02-28T14:50:33;4.80;99.90
7014;DHT22;3547;50.774;12.918;2023-02-28T14:53:00;4.70;99.90
7014;DHT22;3547;50.774;12.918;2023-02-28T14:55:30;4.60;99.90
7014;DHT22;3547;50.774;12.918;2023-02-28T14:58:00;4.60;99.90
7014;DHT22;3547;50.774;12.918;2023-02-28T15:00:34;4.60;99.90
7014;DHT22;3547;50.774;12.918;2023-02-28T15:05:55;4.40;99.90
7014;DHT22;3547;50.774;12.918;2023-02-28T15:08:22;4.30;99.90
7014;DHT22;3547;50.774;12.918;2023-02-28T15:10:58;4.30;99.90
7014;DHT22;3547;50.774;12.918;2023-02-28T15:13:46;4.40;99.90
7014;DHT22;3547;50.774;12.918;2023-02-28T15:18:54;4.60;99.90
7014;DHT22;3547;50.774;12.918;2023-02-28T15:21:25;4.90;99.90
7014;DHT22;3547;50.774;12.918;2023-02-28T15:26:44;5.50;99.90
7014;DHT22;3547;50.774;12.918;2023-02-28T15:29:18;6.00;99.90
7014;DHT22;3547;50.774;12.918;2023-02-28T15:31:54;6.10;99.90
7014;DHT22;3547;50.774;12.918;2023-02-28T15:34:42;6.30;99.90
7014;DHT22;3547;50.774;12.918;2023-02-28T15:40:03;6.30;99.90
7014;DHT22;3547;50.774;12.918;2023-02-28T15:42:31;6.20;99.90
7014;DHT22;3547;50.774;12.918;2023-02-28T15:44:57;6.30;99.90
7014;DHT22;3547;50.774;12.918;2023-02-28T15:47:36;6.20;99.90
7014;DHT22;3547;50.774;12.918;2023-02-28T15:50:06;6.50;99.90
7014;DHT22;3547;50.774;12.918;2023-02-28T15:55:28;6.80;99.90
7014;DHT22;3547;50.774;12.918;2023-02-28T15:57:56;6.80;99.90
7014;DHT22;3547;50.774;12.918;2023-02-28T16:00:27;6.80;99.90
7014;DHT22;3547;50.774;12.918;2023-02-28T16:02:53;6.50;99.90
7014;DHT22;3547;50.774;12.918;2023-02-28T16:05:21;6.10;99.90
7014;DHT22;3547;50.774;12.918;2023-02-28T16:07:55;5.70;99.90
7014;DHT22;3547;50.774;12.918;2023-02-28T16:10:24;5.30;99.90
7014;DHT22;3547;50.774;12.918;2023-02-28T16:12:54;4.80;99.90
7014;DHT22;3547;50.774;12.918;2023-02-28T16:15:26;4.30;99.90
7014;DHT22;3547;50.774;12.918;2023-02-28T16:17:54;3.80;99.90
7014;DHT22;3547;50.774;12.918;2023-02-28T16:20:29;3.50;99.90
7014;DHT22;3547;50.774;12.918;2023-02-28T16:22:56;3.10;99.90
7014;DHT22;3547;50.774;12.918;2023-02-28T16:25:28;2.90;99.90
7014;DHT22;3547;50.774;12.918;2023-02-28T16:27:55;2.60;99.90
7014;DHT22;3547;50.774;12.918;2023-02-28T16:30:25;2.40;99.90
7014;DHT22;3547;50.774;12.918;2023-02-28T16:32:53;2.20;99.90
7014;DHT22;3547;50.774;12.918;2023-02-28T16:35:20;1.90;99.90
7014;DHT22;3547;50.774;12.918;2023-02-28T16:37:47;1.70;99.90
7014;DHT22;3547;50.774;12.918;2023-02-28T16:40:19;1.50;99.90
7014;DHT22;3547;50.774;12.918;2023-02-28T16:42:49;1.40;99.90
7014;DHT22;3547;50.774;12.918;2023-02-28T16:45:23;1.30;99.90
7014;DHT22;3547;50.774;12.918;2023-02-28T16:47:49;1.10;99.90
7014;DHT22;3547;50.774;12.918;2023-02-28T16:50:22;1.10;99.90
7014;DHT22;3547;50.774;12.918;2023-02-28T16:52:50;0.90;99.90
7014;DHT22;3547;50.774;12.918;2023-02-28T16:55:18;0.80;99.90
7014;DHT22;3547;50.774;12.918;2023-02-28T16:57:49;0.70;99.90
7014;DHT22;3547;50.774;12.918;2023-02-28T17:00:16;0.60;99.90
7014;DHT22;3547;50.774;12.918;2023-02-28T17:02:42;0.40;99.90
7014;DHT22;3547;50.774;12.918;2023-02-28T17:05:10;0.40;99.90
7014;DHT22;3547;50.774;12.918;2023-02-28T17:07:37;0.30;99.90
7014;DHT22;3547;50.774;12.918;2023-02-28T17:10:16;0.20;99.90
7014;DHT22;3547;50.774;12.918;2023-02-28T17:12:43;0.10;99.90
7014;DHT22;3547;50.774;12.918;2023-02-28T17:15:11;0.10;99.90
7014;DHT22;3547;50.774;12.918;2023-02-28T17:17:37;0.00;99.90
7014;DHT22;3547;50.774;12.918;2023-02-28T17:20:04;-0.10;99.90
7014;DHT22;3547;50.774;12.918;2023-02-28T17:22:32;-0.10;99.90
7014;DHT22;3547;50.774;12.918;2023-02-28T17:24:58;-0.20;99.90
7014;DHT22;3547;50.774;12.918;2023-02-28T17:27:24;-0.20;99.90
7014;DHT22;3547;50.774;12.918;2023-02-28T17:29:51;-0.20;99.90
7014;DHT22;3547;50.774;12.918;2023-02-28T17:32:17;-0.30;99.90
7014;DHT22;3547;50.774;12.918;2023-02-28T17:34:44;-0.40;99.90
7014;DHT22;3547;50.774;12.918;2023-02-28T17:37:11;-0.50;99.90
7014;DHT22;3547;50.774;12.918;2023-02-28T17:39:37;-0.50;99.90
7014;DHT22;3547;50.774;12.918;2023-02-28T17:42:03;-0.60;99.90
7014;DHT22;3547;50.774;12.918;2023-02-28T17:44:30;-0.60;99.90
7014;DHT22;3547;50.774;12.918;2023-02-28T17:46:56;-0.50;99.90
7014;DHT22;3547;50.774;12.918;2023-02-28T17:49:22;-0.60;99.90
7014;DHT22;3547;50.774;12.918;2023-02-28T17:51:48;-0.60;99.90
7014;DHT22;3547;50.774;12.918;2023-02-28T17:54:16;-0.60;99.90
7014;DHT22;3547;50.774;12.918;2023-02-28T17:56:42;-0.60;99.90
7014;DHT22;3547;50.774;12.918;2023-02-28T17:59:10;-0.70;99.90
7014;DHT22;3547;50.774;12.918;2023-02-28T18:01:37;-0.70;99.90
7014;DHT22;3547;50.774;12.918;2023-02-28T18:04:06;-0.70;99.90
7014;DHT22;3547;50.774;12.918;2023-02-28T18:06:37;-0.70;99.90
7014;DHT22;3547;50.774;12.918;2023-02-28T18:09:19;-0.70;99.90
7014;DHT22;3547;50.774;12.918;2023-02-28T18:11:54;-0.70;99.90
7014;DHT22;3547;50.774;12.918;2023-02-28T18:14:22;-0.80;99.90
7014;DHT22;3547;50.774;12.918;2023-02-28T18:16:50;-0.80;99.90
7014;DHT22;3547;50.774;12.918;2023-02-28T18:19:17;-0.80;99.90
7014;DHT22;3547;50.774;12.918;2023-02-28T18:21:48;-0.80;99.90
7014;DHT22;3547;50.774;12.918;2023-02-28T18:24:19;-0.90;99.90
7014;DHT22;3547;50.774;12.918;2023-02-28T18:26:45;-0.90;99.90
7014;DHT22;3547;50.774;12.918;2023-02-28T18:29:18;-0.90;99.90
7014;DHT22;3547;50.774;12.918;2023-02-28T18:31:44;-0.80;99.90
7014;DHT22;3547;50.774;12.918;2023-02-28T18:34:10;-0.90;99.90
7014;DHT22;3547;50.774;12.918;2023-02-28T18:36:37;-1.00;99.90
7014;DHT22;3547;50.774;12.918;2023-02-28T18:39:03;-1.00;99.90
7014;DHT22;3547;50.774;12.918;2023-02-28T18:41:29;-1.00;99.90
7014;DHT22;3547;50.774;12.918;2023-02-28T18:43:55;-1.10;99.90
7014;DHT22;3547;50.774;12.918;2023-02-28T18:46:22;-1.10;99.90
7014;DHT22;3547;50.774;12.918;2023-02-28T18:48:48;-1.10;99.90
7014;DHT22;3547;50.774;12.918;2023-02-28T18:51:19;-1.20;99.90
7014;DHT22;3547;50.774;12.918;2023-02-28T18:53:45;-1.20;99.90
7014;DHT22;3547;50.774;12.918;2023-02-28T18:56:15;-1.30;99.90
7014;DHT22;3547;50.774;12.918;2023-02-28T18:58:42;-1.20;99.90
7014;DHT22;3547;50.774;12.918;2023-02-28T19:03:46;-1.50;99.90
7014;DHT22;3547;50.774;12.918;2023-02-28T19:06:14;-1.40;99.90
7014;DHT22;3547;50.774;12.918;2023-02-28T19:08:43;-1.40;99.90
7014;DHT22;3547;50.774;12.918;2023-02-28T19:11:12;-1.40;99.90
7014;DHT22;3547;50.774;12.918;2023-02-28T19:13:39;-1.50;99.90